Time;durP1;ratioP1;P1;durP2;ratioP2;P2;SDS_P1;SDS_P2;PMS_P1;PMS_P2;Temp;Humidity;BMP_temperature;BMP_pressure;BME280_temperature;BME280_humidity;BME280_pressure;Samples;Min_cycle;Max_cycle;Signal;HPM_P1;HPM_P2
2021/03/25 00:01:45;;;;;;;14.70;6.68;;;11.40;90.90;;;;;;4995843;28;20049;-76
2021/03/25 00:04:11;;;;;;;13.07;6.20;;;11.40;90.70;;;;;;4995353;28;20038;-77
2021/03/25 00:06:46;;;;;;;14.23;7.40;;;11.40;90.50;;;;;;4995479;28;20120;-76
2021/03/25 00:09:20;;;;;;;;;;;11.40;90.40;;;;;;4995599;28;20125;-74
2021/03/25 00:11:46;;;;;;;18.55;6.90;;;11.40;90.30;;;;;;4977878;28;19993;-77
2021/03/25 00:14:12;;;;;;;16.67;6.43;;;11.40;90.50;;;;;;4993793;28;20037;-75
2021/03/25 00:16:38;;;;;;;11.48;6.47;;;11.40;90.40;;;;;;4994641;28;20430;-75
2021/03/25 00:19:08;;;;;;;11.43;5.80;;;11.40;90.40;;;;;;4993504;28;20379;-75
2021/03/25 00:21:35;;;;;;;10.90;6.07;;;11.40;90.40;;;;;;4977234;28;20038;-75
2021/03/25 00:24:01;;;;;;;17.73;6.40;;;11.40;90.60;;;;;;4994721;28;20038;-75
2021/03/25 00:26:33;;;;;;;13.70;5.65;;;11.40;90.50;;;;;;4994976;28;20113;-77
2021/03/25 00:28:59;;;;;;;13.73;5.15;;;11.40;90.60;;;;;;4993408;28;20046;-75
2021/03/25 00:31:25;;;;;;;13.77;6.25;;;11.40;90.80;;;;;;4994970;28;20042;-75
2021/03/25 00:33:51;;;;;;;14.20;5.55;;;11.40;91.00;;;;;;4993366;28;20404;-75
2021/03/25 00:36:17;;;;;;;10.63;5.57;;;11.50;91.10;;;;;;4993896;28;20073;-75
2021/03/25 00:38:43;;;;;;;12.10;5.45;;;11.50;91.20;;;;;;4993138;28;20038;-75
2021/03/25 00:41:09;;;;;;;11.75;5.55;;;11.50;91.20;;;;;;4976726;28;20050;-75
2021/03/25 00:43:35;;;;;;;10.40;5.40;;;11.50;91.20;;;;;;4995322;28;20042;-76
2021/03/25 00:46:01;;;;;;;14.52;5.55;;;11.50;91.30;;;;;;4977306;28;20043;-76
2021/03/25 00:48:27;;;;;;;12.85;5.65;;;11.50;91.40;;;;;;4981133;28;20038;-76
2021/03/25 00:50:56;;;;;;;12.82;5.70;;;11.50;91.70;;;;;;4981150;28;20041;-76
2021/03/25 00:53:29;;;;;;;12.07;5.18;;;11.60;92.10;;;;;;4998696;28;20042;-75
2021/03/25 00:55:56;;;;;;;9.80;5.22;;;11.60;92.20;;;;;;4996901;28;20044;-76
2021/03/25 00:58:22;;;;;;;9.00;5.32;;;11.50;92.30;;;;;;4998989;28;20073;-76
2021/03/25 01:00:48;;;;;;;18.25;5.78;;;11.50;92.40;;;;;;4980697;28;20091;-75
2021/03/25 01:03:18;;;;;;;11.82;5.22;;;11.50;92.70;;;;;;4998265;28;20080;-75
2021/03/25 01:05:44;;;;;;;15.93;5.72;;;11.50;92.60;;;;;;4997146;28;20041;-76
2021/03/25 01:08:10;;;;;;;14.60;5.60;;;11.50;92.80;;;;;;4997163;28;20034;-76
2021/03/25 01:10:40;;;;;;;14.90;6.35;;;11.50;92.70;;;;;;4996695;28;20041;-75
2021/03/25 01:13:10;;;;;;;15.95;5.75;;;11.60;92.80;;;;;;4998102;28;20127;-76
2021/03/25 01:15:36;;;;;;;13.77;6.65;;;11.60;92.80;;;;;;4996744;28;20401;-76
2021/03/25 01:18:07;;;;;;;12.65;5.63;;;11.60;92.80;;;;;;4996671;28;20137;-76
2021/03/25 01:20:39;;;;;;;12.25;5.93;;;11.60;92.90;;;;;;4996600;28;20042;-76
2021/03/25 01:23:06;;;;;;;11.98;5.53;;;11.60;93.10;;;;;;4996550;28;20034;-75
2021/03/25 01:25:36;;;;;;;15.27;4.97;;;11.60;93.00;;;;;;4997538;28;20041;-75
2021/03/25 01:28:04;;;;;;;12.30;4.45;;;11.60;92.50;;;;;;4998029;28;20049;-75
2021/03/25 01:30:32;;;;;;;16.10;3.50;;;11.50;91.40;;;;;;4996553;28;20122;-75
2021/03/25 01:33:02;;;;;;;9.98;3.30;;;11.50;90.40;;;;;;4997582;28;20045;-75
2021/03/25 01:35:34;;;;;;;10.40;3.13;;;11.50;89.40;;;;;;4996512;28;20066;-75
2021/03/25 01:38:02;;;;;;;10.40;3.10;;;11.50;88.80;;;;;;4996256;28;20042;-75
2021/03/25 01:40:41;;;;;;;13.65;3.78;;;11.60;89.80;;;;;;4995896;28;20479;-75
2021/03/25 01:43:13;;;;;;;9.30;3.42;;;11.60;90.50;;;;;;4997989;28;20062;-77
2021/03/25 01:45:44;;;;;;;16.30;4.68;;;11.60;91.60;;;;;;4996091;28;20035;-76
2021/03/25 01:48:20;;;;;;;9.25;4.00;;;11.60;91.70;;;;;;4997219;28;20034;-77
2021/03/25 01:50:52;;;;;;;17.42;5.28;;;11.50;91.80;;;;;;4995897;28;20121;-76
2021/03/25 01:53:32;;;;;;;12.10;4.47;;;11.60;92.20;;;;;;4998121;28;20046;-75
2021/03/25 01:56:23;;;;;;;10.55;4.32;;;11.50;92.70;;;;;;4979053;28;20041;-76
2021/03/25 01:59:29;;;;;;;14.65;4.70;;;11.50;92.80;;;;;;4979112;28;20583;-75
2021/03/25 02:02:18;;;;;;;10.15;3.95;;;11.50;93.00;;;;;;4979787;28;20491;-75
2021/03/25 02:05:04;;;;;;;16.25;4.90;;;11.40;93.00;;;;;;4995398;28;20561;-75
2021/03/25 02:07:42;;;;;;;13.27;4.18;;;11.40;93.00;;;;;;4956940;28;20046;-75
2021/03/25 02:10:38;;;;;;;10.02;4.13;;;11.40;93.20;;;;;;4996975;28;20084;-75
2021/03/25 02:13:17;;;;;;;13.13;4.35;;;11.40;93.30;;;;;;4997177;28;20046;-75
2021/03/25 02:15:49;;;;;;;13.10;3.60;;;11.40;93.40;;;;;;4995930;28;20113;-75
2021/03/25 02:18:21;;;;;;;14.38;3.92;;;11.50;93.50;;;;;;4996362;28;20463;-75
2021/03/25 02:21:22;;;;;;;10.00;3.38;;;11.50;93.40;;;;;;4996833;28;20399;-75
2021/03/25 02:24:02;;;;;;;17.30;4.10;;;11.50;93.40;;;;;;4997097;28;20042;-75
2021/03/25 02:26:36;;;;;;;12.05;4.13;;;11.50;93.50;;;;;;4980137;28;20045;-75
2021/03/25 02:29:10;;;;;;;11.35;3.45;;;11.50;93.50;;;;;;4997096;28;20581;-75
2021/03/25 02:31:40;;;;;;;11.77;3.17;;;11.60;93.60;;;;;;4996960;28;20499;-75
2021/03/25 02:34:11;;;;;;;12.95;3.85;;;11.60;93.60;;;;;;4995447;28;20045;-75
2021/03/25 02:36:50;;;;;;;8.07;3.75;;;11.60;93.60;;;;;;4996856;28;20069;-75
2021/03/25 02:39:23;;;;;;;12.13;4.03;;;11.60;93.50;;;;;;4996500;28;20045;-75
2021/03/25 02:41:52;;;;;;;12.70;3.63;;;11.60;93.70;;;;;;4995087;28;20040;-76
2021/03/25 02:44:41;;;;;;;14.70;3.45;;;11.60;93.60;;;;;;4995279;28;20035;-75
2021/03/25 02:47:09;;;;;;;14.25;3.88;;;11.60;93.40;;;;;;4984600;28;20039;-74
2021/03/25 02:50:02;;;;;;;16.73;4.05;;;11.60;93.40;;;;;;4995142;28;20426;-75
2021/03/25 02:52:35;;;;;;;11.77;3.25;;;11.60;93.30;;;;;;4996409;28;20121;-74
2021/03/25 02:55:06;;;;;;;16.52;3.92;;;11.60;93.30;;;;;;4994683;28;20074;-75
2021/03/25 02:57:38;;;;;;;13.07;4.15;;;11.60;93.30;;;;;;4978728;28;20526;-75
2021/03/25 03:00:14;;;;;;;21.27;4.80;;;11.60;93.70;;;;;;4995949;28;20069;-75
2021/03/25 03:02:50;;;;;;;13.88;4.07;;;11.60;94.00;;;;;;4996361;28;20042;-75
2021/03/25 03:05:26;;;;;;;13.27;3.50;;;11.60;93.90;;;;;;4978720;28;20041;-75
2021/03/25 03:08:01;;;;;;;18.67;4.20;;;11.60;94.00;;;;;;4994656;28;20039;-75
2021/03/25 03:10:38;;;;;;;15.25;4.07;;;11.60;94.10;;;;;;4993695;28;20172;-75
2021/03/25 03:13:08;;;;;;;14.20;4.18;;;11.60;94.30;;;;;;4994582;28;20052;-75
2021/03/25 03:15:43;;;;;;;21.33;4.20;;;11.60;94.40;;;;;;4996081;28;20510;-75
2021/03/25 03:18:23;;;;;;;15.98;4.10;;;11.60;94.60;;;;;;4994513;28;20042;-75
2021/03/25 03:20:58;;;;;;;10.95;3.75;;;11.60;94.80;;;;;;4978294;28;20046;-75
2021/03/25 03:23:28;;;;;;;18.27;6.05;;;11.60;94.90;;;;;;4995969;28;20096;-75
2021/03/25 03:25:56;;;;;;;23.23;7.45;;;11.60;94.90;;;;;;4977951;28;20042;-75
2021/03/25 03:28:28;;;;;;;17.10;6.07;;;11.60;94.80;;;;;;4995305;28;20034;-75
2021/03/25 03:31:07;;;;;;;21.40;6.03;;;11.60;94.80;;;;;;5010658;28;20373;-76
2021/03/25 03:33:40;;;;;;;24.42;7.15;;;11.60;94.80;;;;;;4995988;28;20042;-74
2021/03/25 03:36:11;;;;;;;23.38;7.43;;;11.60;94.80;;;;;;4978060;28;20066;-75
2021/03/25 03:38:49;;;;;;;12.52;6.30;;;11.60;94.60;;;;;;4995327;28;20388;-75
2021/03/25 03:41:19;;;;;;;13.15;4.35;;;11.60;94.60;;;;;;4978308;28;20042;-75
2021/03/25 03:43:46;;;;;;;12.45;4.13;;;11.60;94.30;;;;;;4978362;28;20046;-75
2021/03/25 03:46:18;;;;;;;10.20;3.25;;;11.60;93.90;;;;;;4978646;28;20066;-75
2021/03/25 03:48:55;;;;;;;6.88;2.90;;;11.50;93.70;;;;;;4995840;28;20057;-75
2021/03/25 03:51:28;;;;;;;9.15;2.88;;;11.50;93.80;;;;;;4977784;28;20089;-75
2021/03/25 03:53:57;;;;;;;10.73;3.20;;;11.50;93.60;;;;;;4995563;28;20092;-75
2021/03/25 03:56:33;;;;;;;8.18;2.80;;;11.50;93.70;;;;;;4978323;28;20041;-75
2021/03/25 03:59:08;;;;;;;8.93;3.08;;;11.50;93.60;;;;;;4993197;28;20042;-75
2021/03/25 04:01:41;;;;;;;10.93;2.70;;;11.50;93.50;;;;;;4995178;28;20073;-75
2021/03/25 04:04:15;;;;;;;4.78;2.40;;;11.40;93.60;;;;;;4995401;28;20042;-75
2021/03/25 04:06:45;;;;;;;;;;;11.40;93.70;;;;;;4977914;28;20038;-75
2021/03/25 04:09:23;;;;;;;16.15;3.05;;;11.40;93.70;;;;;;5010042;28;20013;-75
2021/03/25 04:11:55;;;;;;;9.38;2.70;;;11.30;93.70;;;;;;4995487;28;20185;-75
2021/03/25 04:14:48;;;;;;;9.38;2.50;;;11.30;93.80;;;;;;4995766;28;20037;-75
2021/03/25 04:17:25;;;;;;;12.75;2.75;;;11.30;93.80;;;;;;4977813;28;20073;-75
2021/03/25 04:19:52;;;;;;;12.55;3.28;;;11.30;93.80;;;;;;4995071;28;20038;-75
2021/03/25 04:22:44;;;;;;;12.13;3.22;;;11.20;93.80;;;;;;5009271;28;20046;-75
2021/03/25 04:25:28;;;;;;;11.13;3.08;;;11.30;93.80;;;;;;4991418;28;20034;-75
2021/03/25 04:28:07;;;;;;;13.40;3.08;;;11.20;93.80;;;;;;4995119;28;20046;-75
2021/03/25 04:30:39;;;;;;;9.75;3.80;;;11.20;93.80;;;;;;4995151;28;20476;-75
2021/03/25 04:33:05;;;;;;;10.77;2.83;;;11.20;93.90;;;;;;4977552;28;20045;-75
2021/03/25 04:35:32;;;;;;;11.40;3.65;;;11.20;93.80;;;;;;4994943;28;20034;-75
2021/03/25 04:37:59;;;;;;;14.23;2.90;;;11.20;93.80;;;;;;4977467;28;20045;-76
2021/03/25 04:40:30;;;;;;;12.20;2.78;;;11.20;93.70;;;;;;4994643;28;20054;-75
2021/03/25 04:42:56;;;;;;;10.95;2.38;;;11.20;93.60;;;;;;4977980;28;20458;-75
2021/03/25 04:45:43;;;;;;;7.40;2.40;;;11.20;93.60;;;;;;4995280;28;20117;-75
2021/03/25 04:48:15;;;;;;;14.75;2.58;;;11.20;93.30;;;;;;4995973;28;20472;-75
2021/03/25 04:50:55;;;;;;;12.43;3.20;;;11.20;93.10;;;;;;4994988;28;20503;-76
2021/03/25 04:53:27;;;;;;;8.00;2.65;;;11.30;93.00;;;;;;4977145;28;20082;-75
2021/03/25 04:55:53;;;;;;;7.05;2.03;;;11.20;93.00;;;;;;4976973;28;20042;-75
2021/03/25 04:58:33;;;;;;;11.52;2.78;;;11.30;92.90;;;;;;4977298;28;20041;-75
2021/03/25 05:01:12;;;;;;;6.40;2.22;;;11.30;92.90;;;;;;4976985;28;20053;-75
2021/03/25 05:03:38;;;;;;;10.93;2.40;;;11.20;92.80;;;;;;4977036;28;20040;-75
2021/03/25 05:06:04;;;;;;;10.45;3.10;;;11.20;92.90;;;;;;4994420;28;20034;-75
2021/03/25 05:08:33;;;;;;;8.93;2.30;;;11.20;93.00;;;;;;4995336;28;20038;-75
2021/03/25 05:11:04;;;;;;;8.40;2.40;;;11.20;92.90;;;;;;4976949;28;20062;-75
2021/03/25 05:13:34;;;;;;;9.38;2.80;;;11.30;92.80;;;;;;4994715;28;20097;-75
2021/03/25 05:16:03;;;;;;;9.23;2.60;;;11.20;92.70;;;;;;4977149;28;20565;-75
2021/03/25 05:18:32;;;;;;;7.68;2.17;;;11.20;92.80;;;;;;4977628;28;20042;-75
2021/03/25 05:21:08;;;;;;;11.85;3.28;;;11.30;92.50;;;;;;4993223;28;20451;-75
2021/03/25 05:23:46;;;;;;;14.38;2.60;;;11.30;92.50;;;;;;5009197;28;20052;-75
2021/03/25 05:26:28;;;;;;;13.48;2.17;;;11.20;92.30;;;;;;4976626;28;20399;-75
2021/03/25 05:29:00;;;;;;;9.02;2.28;;;11.20;92.40;;;;;;4976819;28;20030;-75
2021/03/25 05:31:28;;;;;;;10.77;2.92;;;11.20;92.20;;;;;;4994279;28;20511;-75
2021/03/25 05:33:57;;;;;;;13.43;2.15;;;11.20;92.40;;;;;;4978765;28;20085;-75
2021/03/25 05:36:24;;;;;;;8.45;1.95;;;11.20;92.40;;;;;;4997908;28;20070;-76
2021/03/25 05:38:53;;;;;;;12.65;2.80;;;11.20;92.30;;;;;;4979952;28;20491;-75
2021/03/25 05:41:51;;;;;;;14.07;2.25;;;11.20;92.30;;;;;;4976228;28;20054;-75
2021/03/25 05:44:53;;;;;;;11.88;1.80;;;11.10;92.30;;;;;;4976453;28;20045;-76
2021/03/25 05:47:38;;;;;;;12.63;2.55;;;11.10;92.30;;;;;;4978554;28;20074;-76
2021/03/25 05:50:22;;;;;;;12.35;2.00;;;11.10;92.10;;;;;;4976631;28;20042;-76
2021/03/25 05:53:20;;;;;;;17.08;1.98;;;11.20;92.10;;;;;;4978288;28;20043;-76
2021/03/25 05:56:12;;;;;;;11.93;2.08;;;11.20;91.80;;;;;;4977799;28;20039;-75
2021/03/25 05:58:44;;;;;;;16.75;2.22;;;11.20;91.80;;;;;;4993059;28;20105;-75
2021/03/25 06:01:42;;;;;;;12.93;1.90;;;11.10;91.70;;;;;;4976920;28;20514;-75
2021/03/25 06:04:22;;;;;;;11.80;2.05;;;11.20;91.70;;;;;;4976817;28;20547;-75
2021/03/25 06:06:48;;;;;;;19.27;2.35;;;11.10;91.60;;;;;;4976519;28;20039;-77
2021/03/25 06:09:32;;;;;;;12.85;2.30;;;11.10;91.30;;;;;;4976234;28;20058;-75
2021/03/25 06:12:00;;;;;;;12.90;1.65;;;11.20;91.20;;;;;;4976283;28;20035;-75
2021/03/25 06:14:51;;;;;;;16.98;2.00;;;11.10;91.10;;;;;;4977454;28;20042;-75
2021/03/25 06:17:51;;;;;;;10.55;2.05;;;11.10;90.90;;;;;;4978047;28;20034;-75
2021/03/25 06:20:40;;;;;;;15.43;2.10;;;11.10;90.70;;;;;;4977502;28;20053;-75
2021/03/25 06:23:24;;;;;;;16.63;1.83;;;11.10;90.70;;;;;;4977534;28;20041;-75
2021/03/25 06:26:02;;;;;;;15.95;1.95;;;11.20;90.50;;;;;;4977169;28;20043;-75
2021/03/25 06:29:06;;;;;;;12.57;2.42;;;11.20;90.20;;;;;;4976561;28;20384;-75
2021/03/25 06:31:48;;;;;;;13.10;2.10;;;11.20;90.00;;;;;;4973256;28;20046;-75
2021/03/25 06:34:39;;;;;;;17.35;2.13;;;11.20;90.10;;;;;;4976552;28;20065;-75
2021/03/25 06:37:27;;;;;;;15.52;1.85;;;11.20;90.00;;;;;;4976374;28;20039;-75
2021/03/25 06:40:02;;;;;;;21.30;2.30;;;11.30;89.40;;;;;;4983050;28;20050;-75
2021/03/25 06:42:36;;;;;;;12.77;1.85;;;11.30;89.00;;;;;;4997050;28;20062;-75
2021/03/25 06:45:28;;;;;;;11.73;1.73;;;11.30;88.50;;;;;;4996675;28;20039;-75
2021/03/25 06:48:19;;;;;;;7.55;1.58;;;11.30;88.40;;;;;;4997214;28;20495;-75
2021/03/25 06:50:50;;;;;;;25.20;2.55;;;11.40;88.50;;;;;;4979137;28;20046;-75
2021/03/25 06:53:33;;;;;;;14.65;2.47;;;11.40;88.20;;;;;;4996471;28;20042;-75
2021/03/25 06:56:10;;;;;;;10.68;1.85;;;11.50;88.00;;;;;;4996471;28;20026;-75
2021/03/25 06:58:47;;;;;;;19.58;2.25;;;11.50;87.30;;;;;;4996860;28;20046;-75
2021/03/25 07:01:31;;;;;;;14.30;2.35;;;11.60;87.70;;;;;;4996773;28;20035;-76
2021/03/25 07:04:01;;;;;;;8.17;1.70;;;11.60;86.70;;;;;;4978857;28;20068;-75
2021/03/25 07:06:29;;;;;;;14.27;2.40;;;11.70;86.40;;;;;;4974079;28;20035;-75
2021/03/25 07:08:55;;;;;;;18.70;2.40;;;11.70;86.50;;;;;;4987714;28;20085;-75
2021/03/25 07:11:24;;;;;;;8.95;1.70;;;11.70;85.70;;;;;;4996232;28;20514;-75
2021/03/25 07:14:12;;;;;;;11.18;2.00;;;11.80;86.00;;;;;;4996344;28;20394;-75
2021/03/25 07:16:42;;;;;;;15.43;2.03;;;11.80;84.80;;;;;;4995750;28;20100;-75
2021/03/25 07:19:14;;;;;;;8.30;1.73;;;11.90;84.60;;;;;;4978556;28;20034;-75
2021/03/25 07:21:44;;;;;;;14.25;1.80;;;11.90;83.20;;;;;;4978747;28;20076;-75
2021/03/25 07:24:12;;;;;;;17.63;2.08;;;12.00;83.70;;;;;;4995384;28;20407;-74
2021/03/25 07:26:42;;;;;;;14.38;2.42;;;12.00;83.60;;;;;;4978936;28;20034;-74
2021/03/25 07:29:11;;;;;;;13.52;2.10;;;12.10;82.80;;;;;;4994368;28;20084;-75
2021/03/25 07:32:00;;;;;;;10.77;1.77;;;12.10;82.40;;;;;;4995749;28;20097;-75
2021/03/25 07:34:37;;;;;;;9.00;1.70;;;12.20;82.70;;;;;;4993966;28;20038;-75
2021/03/25 07:37:06;;;;;;;12.68;1.98;;;12.20;82.10;;;;;;4995900;28;20053;-75
2021/03/25 07:39:38;;;;;;;11.35;1.88;;;12.20;82.30;;;;;;4993838;28;20050;-78
2021/03/25 07:42:06;;;;;;;16.17;2.30;;;12.30;82.40;;;;;;4977669;28;20104;-77
2021/03/25 07:44:34;;;;;;;12.80;1.70;;;12.40;82.00;;;;;;4995340;28;20034;-76
2021/03/25 07:47:23;;;;;;;11.93;1.75;;;12.40;82.00;;;;;;4995306;28;20151;-75
2021/03/25 07:49:49;;;;;;;9.48;1.90;;;12.50;81.60;;;;;;4995322;28;20034;-76
2021/03/25 07:52:31;;;;;;;11.27;1.40;;;12.60;79.90;;;;;;4977648;28;20495;-76
2021/03/25 07:55:19;;;;;;;12.13;1.60;;;12.70;78.10;;;;;;4994973;28;20403;-75
2021/03/25 07:57:48;;;;;;;11.23;1.90;;;12.70;77.80;;;;;;4987005;28;20044;-75
2021/03/25 08:00:18;;;;;;;6.47;1.33;;;12.70;77.40;;;;;;4994937;28;20041;-75
2021/03/25 08:02:44;;;;;;;7.93;1.80;;;12.70;75.70;;;;;;4995186;28;20038;-76
2021/03/25 08:05:18;;;;;;;11.75;1.50;;;12.90;75.80;;;;;;4994220;28;20125;-75
2021/03/25 08:07:46;;;;;;;11.52;1.67;;;13.00;75.10;;;;;;4977237;28;20079;-75
2021/03/25 08:10:41;;;;;;;10.82;1.27;;;13.00;74.60;;;;;;4977608;28;20041;-76
2021/03/25 08:13:29;;;;;;;10.93;2.05;;;12.90;72.80;;;;;;4993384;28;20129;-76
2021/03/25 08:16:10;;;;;;;6.63;1.55;;;13.10;72.80;;;;;;4977437;28;20563;-76
2021/03/25 08:19:01;;;;;;;5.53;1.40;;;13.10;71.50;;;;;;4977089;28;20057;-76
2021/03/25 08:21:40;;;;;;;11.55;1.98;;;13.10;71.70;;;;;;4977051;28;20470;-76
2021/03/25 08:24:37;;;;;;;11.90;2.25;;;13.10;71.20;;;;;;4977709;28;20402;-76
2021/03/25 08:27:40;;;;;;;9.52;1.70;;;13.10;71.10;;;;;;4995090;28;20045;-76
2021/03/25 08:30:26;;;;;;;6.50;1.20;;;13.10;71.50;;;;;;4994764;28;20074;-76
2021/03/25 08:32:55;;;;;;;10.38;1.27;;;13.20;68.80;;;;;;4976839;28;20130;-76
2021/03/25 08:35:58;;;;;;;8.25;1.58;;;13.40;69.30;;;;;;4994533;28;20132;-76
2021/03/25 08:38:38;;;;;;;7.95;1.60;;;13.60;66.60;;;;;;4993939;28;20146;-76
2021/03/25 08:41:25;;;;;;;11.90;2.28;;;13.50;66.30;;;;;;4977290;28;20415;-75
2021/03/25 08:44:09;;;;;;;8.02;1.83;;;13.30;67.50;;;;;;4995442;28;20061;-76
2021/03/25 08:46:37;;;;;;;9.35;1.55;;;13.30;67.10;;;;;;4995297;28;20069;-75
2021/03/25 08:49:21;;;;;;;9.70;1.45;;;13.30;66.80;;;;;;4995139;28;20061;-76
2021/03/25 08:51:50;;;;;;;4.40;1.50;;;13.40;64.60;;;;;;4976706;28;20063;-77
2021/03/25 08:54:19;;;;;;;9.30;1.50;;;13.60;62.80;;;;;;4993491;28;20188;-76
2021/03/25 08:56:51;;;;;;;8.43;1.50;;;13.60;61.40;;;;;;4995063;28;20046;-76
2021/03/25 08:59:20;;;;;;;4.22;0.77;;;13.60;60.00;;;;;;4995076;28;20045;-76
2021/03/25 09:02:16;;;;;;;6.82;1.20;;;13.60;59.60;;;;;;4994590;28;20042;-75
2021/03/25 09:04:53;;;;;;;6.45;0.93;;;13.70;57.60;;;;;;4994945;28;20030;-75
2021/03/25 09:07:23;;;;;;;5.55;0.90;;;13.70;57.00;;;;;;4995018;28;20089;-76
2021/03/25 09:10:06;;;;;;;8.60;1.17;;;13.70;58.00;;;;;;4980930;28;20041;-76
2021/03/25 09:12:32;;;;;;;6.22;0.57;;;13.80;56.70;;;;;;4999128;28;20051;-75
2021/03/25 09:15:00;;;;;;;7.95;0.88;;;13.90;55.70;;;;;;4998420;28;20046;-76
2021/03/25 09:17:38;;;;;;;3.80;0.70;;;14.00;54.90;;;;;;4998662;28;20498;-76
2021/03/25 09:20:25;;;;;;;5.85;0.68;;;14.10;54.10;;;;;;4998651;28;20038;-77
2021/03/25 09:22:56;;;;;;;6.00;0.80;;;14.20;54.60;;;;;;4998449;28;20030;-76
2021/03/25 09:25:34;;;;;;;5.25;0.70;;;14.40;52.60;;;;;;4996665;28;20352;-75
2021/03/25 09:28:19;;;;;;;3.97;0.75;;;14.30;51.50;;;;;;4997215;28;20053;-75
2021/03/25 09:31:06;;;;;;;4.47;0.68;;;14.40;51.70;;;;;;4998155;28;20148;-75
2021/03/25 09:33:48;;;;;;;4.72;0.88;;;14.60;50.60;;;;;;4981198;28;20410;-75
2021/03/25 09:36:17;;;;;;;3.53;0.73;;;14.80;50.00;;;;;;4998121;28;20125;-76
2021/03/25 09:38:48;;;;;;;5.32;0.73;;;14.70;48.70;;;;;;4997782;28;20043;-76
2021/03/25 09:41:24;;;;;;;7.00;0.80;;;14.60;49.00;;;;;;4996180;28;20108;-75
2021/03/25 09:43:53;;;;;;;5.95;0.75;;;14.60;49.50;;;;;;4979913;28;20411;-76
2021/03/25 09:46:48;;;;;;;4.15;0.50;;;14.60;50.00;;;;;;4997780;28;20058;-76
2021/03/25 09:49:19;;;;;;;8.23;1.23;;;14.80;48.60;;;;;;4997882;28;20034;-76
2021/03/25 09:52:12;;;;;;;5.55;0.88;;;14.90;49.30;;;;;;4997354;28;20293;-76
2021/03/25 09:54:46;;;;;;;3.92;0.82;;;15.10;49.80;;;;;;4997363;28;20046;-76
2021/03/25 09:57:25;;;;;;;7.53;1.10;;;15.30;48.60;;;;;;4980191;28;20115;-76
2021/03/25 10:00:17;;;;;;;5.93;0.70;;;15.30;48.00;;;;;;4995678;28;20523;-76
2021/03/25 10:02:51;;;;;;;5.13;0.90;;;15.10;48.30;;;;;;4997392;28;20042;-76
2021/03/25 10:05:20;;;;;;;4.00;1.23;;;15.10;48.00;;;;;;4997051;28;20416;-76
2021/03/25 10:07:56;;;;;;;10.10;0.93;;;15.20;48.20;;;;;;4996931;28;20097;-77
2021/03/25 10:10:40;;;;;;;8.07;1.63;;;15.10;49.70;;;;;;4996924;28;20499;-75
2021/03/25 10:13:13;;;;;;;12.90;1.42;;;15.00;55.20;;;;;;4997564;28;20096;-76
2021/03/25 10:15:58;;;;;;;5.13;1.40;;;15.10;57.60;;;;;;4997011;28;20042;-76
2021/03/25 10:18:26;;;;;;;6.38;1.25;;;15.20;56.20;;;;;;4996940;28;20057;-76
2021/03/25 10:21:10;;;;;;;10.35;1.17;;;15.30;57.00;;;;;;4996641;28;20046;-77
2021/03/25 10:23:51;;;;;;;10.70;1.30;;;15.40;56.60;;;;;;4996972;28;20037;-76
2021/03/25 10:26:34;;;;;;;7.03;1.60;;;15.40;58.30;;;;;;4979805;28;20105;-77
2021/03/25 10:29:09;;;;;;;6.70;1.30;;;15.30;57.20;;;;;;4996818;28;20073;-78
2021/03/25 10:31:46;;;;;;;3.50;1.00;;;15.30;58.60;;;;;;4996824;28;20050;-76
2021/03/25 10:34:24;;;;;;;5.55;1.70;;;15.40;57.90;;;;;;4997283;28;20093;-77
2021/03/25 10:37:13;;;;;;;7.07;1.08;;;15.30;59.10;;;;;;4979111;28;20046;-76
2021/03/25 10:39:43;;;;;;;11.02;1.33;;;15.30;58.40;;;;;;4995501;28;20137;-77
2021/03/25 10:42:25;;;;;;;5.28;1.00;;;15.50;57.00;;;;;;4996960;28;20128;-77
2021/03/25 10:44:53;;;;;;;3.88;0.85;;;15.60;54.50;;;;;;4996759;28;20574;-77
2021/03/25 10:47:31;;;;;;;5.18;1.10;;;15.70;56.70;;;;;;4996518;28;20037;-78
2021/03/25 10:50:01;;;;;;;13.30;1.58;;;15.70;56.20;;;;;;4996790;28;20034;-76
2021/03/25 10:52:30;;;;;;;8.70;1.10;;;15.90;56.80;;;;;;4996720;28;20042;-77
2021/03/25 10:54:58;;;;;;;5.13;0.98;;;15.90;57.90;;;;;;4978452;28;20034;-77
2021/03/25 10:57:29;;;;;;;7.82;1.08;;;15.70;58.00;;;;;;4996191;28;20054;-77
2021/03/25 11:00:02;;;;;;;5.82;1.73;;;15.80;58.30;;;;;;4995200;28;20157;-77
2021/03/25 11:02:36;;;;;;;9.32;1.05;;;15.90;57.60;;;;;;4994386;28;20035;-76
2021/03/25 11:05:08;;;;;;;13.10;1.33;;;16.20;56.60;;;;;;4996042;28;20039;-77
2021/03/25 11:07:48;;;;;;;9.07;1.33;;;16.20;55.40;;;;;;4996452;28;20045;-77
2021/03/25 11:10:19;;;;;;;10.10;1.45;;;16.20;55.50;;;;;;4994461;28;20042;-77
2021/03/25 11:12:45;;;;;;;5.80;1.05;;;16.10;57.70;;;;;;4978034;28;20046;-76
2021/03/25 11:15:36;;;;;;;8.60;1.27;;;16.30;58.70;;;;;;4977984;28;20085;-77
2021/03/25 11:18:15;;;;;;;6.50;1.10;;;16.20;56.80;;;;;;4995829;28;20049;-78
2021/03/25 11:20:41;;;;;;;7.53;1.30;;;16.20;58.00;;;;;;4995657;28;20101;-77
2021/03/25 11:23:15;;;;;;;8.80;2.05;;;16.40;58.10;;;;;;4995409;28;20495;-77
2021/03/25 11:25:41;;;;;;;5.30;1.33;;;16.40;57.30;;;;;;4993442;28;20106;-79
2021/03/25 11:28:13;;;;;;;6.35;1.25;;;16.50;56.60;;;;;;4995518;28;20038;-77
2021/03/25 11:30:46;;;;;;;12.15;1.92;;;16.50;56.70;;;;;;4994596;28;20046;-77
2021/03/25 11:33:27;;;;;;;7.85;1.65;;;16.50;56.70;;;;;;4978745;28;20162;-78
2021/03/25 11:35:54;;;;;;;6.57;1.30;;;16.60;57.50;;;;;;4978032;28;20042;-77
2021/03/25 11:38:28;;;;;;;6.43;1.52;;;16.60;55.90;;;;;;4995264;28;20038;-77
2021/03/25 11:41:11;;;;;;;11.90;1.45;;;16.30;59.00;;;;;;4977230;28;20053;-78
2021/03/25 11:43:49;;;;;;;7.43;2.00;;;16.50;57.30;;;;;;4995136;28;20034;-77
2021/03/25 11:46:49;;;;;;;5.65;1.27;;;16.50;58.00;;;;;;4994834;28;20034;-77
2021/03/25 11:49:17;;;;;;;8.50;1.45;;;16.50;56.40;;;;;;4982601;28;20499;-77
2021/03/25 11:52:00;;;;;;;5.93;1.25;;;16.50;56.70;;;;;;4976797;28;20038;-77
2021/03/25 11:54:31;;;;;;;9.68;1.38;;;16.70;54.40;;;;;;4994815;28;20050;-78
2021/03/25 11:57:45;;;;;;;6.65;1.30;;;16.60;53.60;;;;;;4976893;28;20495;-79
2021/03/25 12:00:21;;;;;;;9.32;1.10;;;16.90;53.10;;;;;;4984955;28;20861;-78
2021/03/25 12:02:48;;;;;;;9.55;1.27;;;17.10;52.00;;;;;;4993551;28;20507;-78
2021/03/25 12:05:40;;;;;;;6.72;1.00;;;17.10;49.20;;;;;;4994674;28;20078;-80
2021/03/25 12:08:15;;;;;;;6.57;1.20;;;16.80;50.90;;;;;;4976981;28;20034;-80
2021/03/25 12:10:42;;;;;;;8.40;1.52;;;16.80;52.40;;;;;;4994309;28;20042;-79
2021/03/25 12:13:09;;;;;;;9.73;1.05;;;16.80;52.20;;;;;;4994249;28;20113;-78
2021/03/25 12:15:36;;;;;;;7.45;1.10;;;16.70;50.80;;;;;;4994470;28;20049;-78
2021/03/25 12:18:17;;;;;;;7.05;1.10;;;16.90;50.90;;;;;;4977278;28;20038;-78
2021/03/25 12:20:43;;;;;;;8.88;1.05;;;16.80;52.80;;;;;;4994555;28;20128;-78
2021/03/25 12:23:22;;;;;;;9.95;1.55;;;16.80;53.10;;;;;;4993114;28;20120;-78
2021/03/25 12:25:50;;;;;;;5.03;1.13;;;16.90;53.10;;;;;;4992793;28;20530;-77
2021/03/25 12:28:16;;;;;;;7.95;1.00;;;17.00;51.70;;;;;;4994625;28;20040;-78
2021/03/25 12:30:44;;;;;;;9.60;1.15;;;17.30;50.00;;;;;;4994911;28;20046;-77
2021/03/25 12:33:37;;;;;;;6.93;1.52;;;17.50;49.20;;;;;;4994973;28;20042;-77
2021/03/25 12:36:06;;;;;;;14.93;3.75;;;17.20;52.20;;;;;;4981813;28;20287;-77
2021/03/25 12:38:32;;;;;;;28.42;12.45;;;17.20;52.30;;;;;;4990144;28;20132;-77
2021/03/25 12:40:58;;;;;;;6.72;1.70;;;17.30;57.60;;;;;;4991688;28;20065;-75
2021/03/25 12:43:27;;;;;;;13.20;4.35;;;17.10;52.50;;;;;;4997150;28;20141;-78
2021/03/25 12:45:57;;;;;;;12.00;2.88;;;17.30;53.30;;;;;;4996670;28;20073;-78
2021/03/25 12:48:27;;;;;;;9.63;2.97;;;17.50;52.90;;;;;;4997510;28;20491;-77
2021/03/25 12:50:53;;;;;;;13.57;3.15;;;17.50;53.90;;;;;;4996720;28;20129;-78
2021/03/25 12:53:20;;;;;;;10.95;2.17;;;18.00;51.80;;;;;;4998012;28;20046;-78
2021/03/25 12:55:46;;;;;;;6.35;1.30;;;17.90;52.10;;;;;;4997482;28;20072;-79
2021/03/25 12:58:41;;;;;;;6.40;1.60;;;17.90;51.90;;;;;;4997439;28;20066;-78
2021/03/25 13:01:10;;;;;;;8.57;1.30;;;17.60;52.70;;;;;;4980860;28;20407;-81
2021/03/25 13:03:37;;;;;;;9.30;1.13;;;17.40;53.10;;;;;;4995799;28;20446;-77
2021/03/25 13:06:05;;;;;;;7.55;1.40;;;17.30;54.20;;;;;;4997738;28;20045;-78
2021/03/25 13:08:30;;;;;;;13.20;1.75;;;17.40;54.10;;;;;;4979412;28;20034;-77
2021/03/25 13:10:56;;;;;;;11.05;1.17;;;17.40;53.80;;;;;;4979778;28;20092;-77
2021/03/25 13:13:22;;;;;;;6.38;1.23;;;17.20;54.90;;;;;;4997436;28;20474;-77
2021/03/25 13:15:48;;;;;;;4.88;1.20;;;17.10;55.00;;;;;;4997314;28;20121;-76
2021/03/25 13:18:14;;;;;;;9.68;1.20;;;17.10;54.30;;;;;;4996743;28;20049;-77
2021/03/25 13:20:40;;;;;;;5.57;1.38;;;17.20;54.80;;;;;;4996983;28;20499;-78
2021/03/25 13:23:06;;;;;;;12.90;1.65;;;17.30;54.70;;;;;;4997396;28;20113;-77